Kempton Park, United Kingdom
Current Conditions -  °F | °C
As of 1:50 AM on Saturday 01 Nov 2014 (Local Time) from EGLL Reporting Station
Broken Clouds Broken Clouds  
Wind Chill: 61°   Ceiling: 1700
Heat Index: 61°   Visibility: 6mi
Dew Point: 57°   Wind: 8mph
Humidity: 88%   Direction: 190°S
Pressure: 29.94"   Gusts: NA
Location:  51.42°N, 0.39°W
Report Text: EGLL 010150Z AUTO 19007KT 9999 BKN017 16/14 Q1014
Loading
Personal Weather Stations






























Interactive Weather Map
Tropical Storm Tracking
New forecast layout! Learn more

10-Day Weather Forecast

Advertisements
Track Severe Weather on mobile